עמוד ראשי
METAR-TAF:

METAR-TAF

שדות תעופה :

Gustavus, אלסקה, ארצות הברית

קו רוחב: 58-25N, קו אורך: 135-42W, גובה: 10מטר

תצפית מזג אוויר נוכחית

הדו"ח נערך לפני 34דקות, בשעה 15:56 UTC
רוח רגועה
טמפרטורת 10 צלסיוס
לחות 93%
לחץ 1019 hPa
ראות: 9.7קילומטר
עננים פזורים בגובה 700רגל
מעונן בגובה 1200רגל
אד

METAR: PAGS 171556Z AUTO 00000KT 6SM BR SCT007 OVC012 10/09 A3009 RMK AO2 SLP189 T01000089 TSNO

זמן: 08:30 (16:30 UTC)

תחזית

הדו"ח נערך לפני 5 שעות ו 10דקות, בשעה 11:20 UTC
תחזית בתוקף מ 17 ב 12 UTC עד 18 ב 12 UTC
רוח 4קשר עם כיוונים משתנים
ראות: 10קילומטר
מעונן בגובה 700רגל
מ 17 ב 2100UTC
רוח 8קשר מכיוון דרום/דרום-מערב
ראות: 10קילומטר
עננים פזורים בגובה 1600רגל
מ 18 ב 0600UTC
רוח 4קשר עם כיוונים משתנים
ראות: 10קילומטר
עננים בינוניים בגובה 1000רגל
מעונן בגובה 1500רגל

TAF: PAGS 171120Z 1712/1812 VRB04KT P6SM OVC007 FM172100 21008KT P6SM SCT016 FM180600 VRB04KT P6SM BKN010 OVC015 AMD LTD TO CLD VIS AND WIND

תצפיות ותחזיות מזג אוויר לגבי יותר מ- 4,000 שדות תעופה ברחבי העולם. דוחות METAR ו- TAF.

התחנות הזמינות מסומנות בנקודות צהובות ואדומות על גבי המפה.

העבר את העכבר לנקודה הצבעונית על מנת לראות את שם התחנה.

לאחר מכן, לחץ כדי לראות את תוכן ואת תחזיות מזג האוויר.

כדי לשנות את המפה: לחץ על הכפתורים הירוקים עם הפלוס השחור כדי להתקרב; על הכפתור הירוק עם המקף כדי להתרחק; או בחיצים הירוקים למפות סמוכות.


METAR-TAF: